sensor_id;sensor_type;location;lat;lon;timestamp;P1;durP1;ratioP1;P2;durP2;ratioP2
76591;SDS011;65481;47.600;19.682;2023-07-20T00:02:45;5.40;;;4.03;;
76591;SDS011;65481;47.600;19.682;2023-07-20T00:07:45;5.55;;;3.97;;
76591;SDS011;65481;47.600;19.682;2023-07-20T00:12:46;6.38;;;4.53;;
76591;SDS011;65481;47.600;19.682;2023-07-20T00:17:47;9.10;;;4.00;;
76591;SDS011;65481;47.600;19.682;2023-07-20T00:22:48;6.03;;;4.28;;
76591;SDS011;65481;47.600;19.682;2023-07-20T00:27:51;7.28;;;4.65;;
76591;SDS011;65481;47.600;19.682;2023-07-20T00:32:51;7.20;;;4.30;;
76591;SDS011;65481;47.600;19.682;2023-07-20T00:37:52;8.13;;;4.10;;
76591;SDS011;65481;47.600;19.682;2023-07-20T00:42:52;6.47;;;3.90;;
76591;SDS011;65481;47.600;19.682;2023-07-20T00:47:52;6.03;;;4.05;;
76591;SDS011;65481;47.600;19.682;2023-07-20T00:52:54;5.18;;;3.85;;
76591;SDS011;65481;47.600;19.682;2023-07-20T00:57:55;6.10;;;4.03;;
76591;SDS011;65481;47.600;19.682;2023-07-20T01:02:57;5.53;;;4.40;;
76591;SDS011;65481;47.600;19.682;2023-07-20T01:07:58;7.55;;;4.38;;
76591;SDS011;65481;47.600;19.682;2023-07-20T01:13:04;5.75;;;4.57;;
76591;SDS011;65481;47.600;19.682;2023-07-20T01:18:07;7.03;;;4.32;;
76591;SDS011;65481;47.600;19.682;2023-07-20T01:23:12;6.55;;;4.28;;
76591;SDS011;65481;47.600;19.682;2023-07-20T01:28:45;7.22;;;4.63;;
76591;SDS011;65481;47.600;19.682;2023-07-20T01:33:58;9.07;;;4.35;;
76591;SDS011;65481;47.600;19.682;2023-07-20T01:39:01;6.13;;;4.70;;
76591;SDS011;65481;47.600;19.682;2023-07-20T01:44:03;8.07;;;4.90;;
76591;SDS011;65481;47.600;19.682;2023-07-20T01:49:04;6.78;;;4.55;;
76591;SDS011;65481;47.600;19.682;2023-07-20T01:54:04;7.07;;;4.90;;
76591;SDS011;65481;47.600;19.682;2023-07-20T01:59:05;5.47;;;4.05;;
76591;SDS011;65481;47.600;19.682;2023-07-20T02:04:05;4.78;;;3.88;;
76591;SDS011;65481;47.600;19.682;2023-07-20T02:09:06;5.57;;;4.65;;
76591;SDS011;65481;47.600;19.682;2023-07-20T02:14:06;8.00;;;4.50;;
76591;SDS011;65481;47.600;19.682;2023-07-20T02:19:07;6.35;;;4.22;;
76591;SDS011;65481;47.600;19.682;2023-07-20T02:24:07;8.10;;;4.72;;
76591;SDS011;65481;47.600;19.682;2023-07-20T02:29:08;6.93;;;4.85;;
76591;SDS011;65481;47.600;19.682;2023-07-20T02:34:08;5.63;;;4.50;;
76591;SDS011;65481;47.600;19.682;2023-07-20T02:39:09;6.78;;;4.88;;
76591;SDS011;65481;47.600;19.682;2023-07-20T02:44:10;5.78;;;4.75;;
76591;SDS011;65481;47.600;19.682;2023-07-20T02:49:10;6.80;;;4.80;;
76591;SDS011;65481;47.600;19.682;2023-07-20T02:54:11;6.32;;;4.50;;
76591;SDS011;65481;47.600;19.682;2023-07-20T02:59:12;6.88;;;5.00;;
76591;SDS011;65481;47.600;19.682;2023-07-20T03:04:13;8.15;;;5.28;;
76591;SDS011;65481;47.600;19.682;2023-07-20T03:09:13;7.25;;;5.03;;
76591;SDS011;65481;47.600;19.682;2023-07-20T03:14:15;7.60;;;5.28;;
76591;SDS011;65481;47.600;19.682;2023-07-20T03:19:16;7.47;;;5.10;;
76591;SDS011;65481;47.600;19.682;2023-07-20T03:24:16;9.27;;;5.35;;
76591;SDS011;65481;47.600;19.682;2023-07-20T03:29:16;7.80;;;5.20;;
76591;SDS011;65481;47.600;19.682;2023-07-20T03:34:17;7.68;;;5.18;;
76591;SDS011;65481;47.600;19.682;2023-07-20T03:39:17;6.53;;;5.13;;
76591;SDS011;65481;47.600;19.682;2023-07-20T03:44:18;6.53;;;5.15;;
76591;SDS011;65481;47.600;19.682;2023-07-20T03:49:19;7.18;;;5.43;;
76591;SDS011;65481;47.600;19.682;2023-07-20T03:54:19;6.47;;;4.82;;
76591;SDS011;65481;47.600;19.682;2023-07-20T03:59:20;7.53;;;5.60;;
76591;SDS011;65481;47.600;19.682;2023-07-20T04:04:20;11.48;;;5.40;;
76591;SDS011;65481;47.600;19.682;2023-07-20T04:09:21;7.25;;;5.05;;
76591;SDS011;65481;47.600;19.682;2023-07-20T04:14:22;7.35;;;5.80;;
76591;SDS011;65481;47.600;19.682;2023-07-20T04:19:22;8.18;;;5.22;;
76591;SDS011;65481;47.600;19.682;2023-07-20T04:24:23;8.90;;;5.40;;
76591;SDS011;65481;47.600;19.682;2023-07-20T04:29:23;9.13;;;5.63;;
76591;SDS011;65481;47.600;19.682;2023-07-20T04:34:24;8.10;;;5.15;;
76591;SDS011;65481;47.600;19.682;2023-07-20T04:39:24;10.73;;;6.20;;
76591;SDS011;65481;47.600;19.682;2023-07-20T04:44:25;7.55;;;5.85;;
76591;SDS011;65481;47.600;19.682;2023-07-20T04:49:26;9.38;;;6.53;;
76591;SDS011;65481;47.600;19.682;2023-07-20T04:54:26;6.60;;;5.47;;
76591;SDS011;65481;47.600;19.682;2023-07-20T04:59:27;7.25;;;5.50;;
76591;SDS011;65481;47.600;19.682;2023-07-20T05:04:27;14.07;;;5.95;;
76591;SDS011;65481;47.600;19.682;2023-07-20T05:09:28;8.35;;;6.07;;
76591;SDS011;65481;47.600;19.682;2023-07-20T05:14:28;8.73;;;6.28;;
76591;SDS011;65481;47.600;19.682;2023-07-20T05:19:29;7.28;;;5.15;;
76591;SDS011;65481;47.600;19.682;2023-07-20T05:24:29;8.23;;;5.35;;
76591;SDS011;65481;47.600;19.682;2023-07-20T05:29:30;9.27;;;5.20;;
76591;SDS011;65481;47.600;19.682;2023-07-20T05:34:31;10.05;;;4.68;;
76591;SDS011;65481;47.600;19.682;2023-07-20T05:39:34;5.60;;;4.18;;
76591;SDS011;65481;47.600;19.682;2023-07-20T05:44:35;7.20;;;4.28;;
76591;SDS011;65481;47.600;19.682;2023-07-20T05:49:36;5.40;;;4.18;;
76591;SDS011;65481;47.600;19.682;2023-07-20T05:54:36;7.35;;;4.00;;
76591;SDS011;65481;47.600;19.682;2023-07-20T05:59:37;7.05;;;4.43;;
76591;SDS011;65481;47.600;19.682;2023-07-20T06:04:38;8.13;;;4.50;;
76591;SDS011;65481;47.600;19.682;2023-07-20T06:09:39;4.95;;;4.10;;
76591;SDS011;65481;47.600;19.682;2023-07-20T06:14:40;5.07;;;4.05;;
76591;SDS011;65481;47.600;19.682;2023-07-20T06:19:40;6.55;;;4.30;;
76591;SDS011;65481;47.600;19.682;2023-07-20T06:24:41;6.50;;;3.75;;
76591;SDS011;65481;47.600;19.682;2023-07-20T06:29:41;5.30;;;3.72;;
76591;SDS011;65481;47.600;19.682;2023-07-20T06:34:42;7.97;;;4.10;;
76591;SDS011;65481;47.600;19.682;2023-07-20T06:39:42;6.57;;;3.70;;
76591;SDS011;65481;47.600;19.682;2023-07-20T06:44:43;6.72;;;4.00;;
76591;SDS011;65481;47.600;19.682;2023-07-20T06:49:43;6.25;;;3.80;;
76591;SDS011;65481;47.600;19.682;2023-07-20T06:54:44;6.55;;;3.65;;
76591;SDS011;65481;47.600;19.682;2023-07-20T06:59:44;8.05;;;3.95;;
76591;SDS011;65481;47.600;19.682;2023-07-20T07:04:45;6.78;;;3.70;;
76591;SDS011;65481;47.600;19.682;2023-07-20T07:09:47;8.27;;;4.57;;
76591;SDS011;65481;47.600;19.682;2023-07-20T07:14:47;6.43;;;3.57;;
76591;SDS011;65481;47.600;19.682;2023-07-20T07:19:48;4.78;;;3.95;;
76591;SDS011;65481;47.600;19.682;2023-07-20T07:24:48;5.03;;;3.67;;
76591;SDS011;65481;47.600;19.682;2023-07-20T07:29:49;5.93;;;4.35;;
76591;SDS011;65481;47.600;19.682;2023-07-20T07:34:49;5.82;;;4.07;;
76591;SDS011;65481;47.600;19.682;2023-07-20T07:39:50;9.10;;;4.13;;
76591;SDS011;65481;47.600;19.682;2023-07-20T07:44:50;7.93;;;3.83;;
76591;SDS011;65481;47.600;19.682;2023-07-20T07:49:51;5.38;;;3.65;;
76591;SDS011;65481;47.600;19.682;2023-07-20T07:54:51;5.28;;;3.13;;
76591;SDS011;65481;47.600;19.682;2023-07-20T07:59:52;6.63;;;3.63;;
76591;SDS011;65481;47.600;19.682;2023-07-20T08:04:52;4.15;;;3.35;;
76591;SDS011;65481;47.600;19.682;2023-07-20T08:09:53;5.70;;;3.63;;
76591;SDS011;65481;47.600;19.682;2023-07-20T08:14:53;5.30;;;3.00;;
76591;SDS011;65481;47.600;19.682;2023-07-20T08:19:54;7.00;;;3.38;;
76591;SDS011;65481;47.600;19.682;2023-07-20T08:24:54;6.65;;;3.50;;
76591;SDS011;65481;47.600;19.682;2023-07-20T08:29:55;5.97;;;3.00;;
76591;SDS011;65481;47.600;19.682;2023-07-20T08:34:56;6.53;;;3.35;;
76591;SDS011;65481;47.600;19.682;2023-07-20T08:39:57;5.82;;;3.17;;
76591;SDS011;65481;47.600;19.682;2023-07-20T08:44:57;6.63;;;3.23;;
76591;SDS011;65481;47.600;19.682;2023-07-20T08:49:59;3.17;;;2.70;;
76591;SDS011;65481;47.600;19.682;2023-07-20T08:55:02;6.63;;;3.03;;
76591;SDS011;65481;47.600;19.682;2023-07-20T09:00:05;3.17;;;2.40;;
76591;SDS011;65481;47.600;19.682;2023-07-20T09:05:11;8.40;;;2.78;;
76591;SDS011;65481;47.600;19.682;2023-07-20T09:10:15;8.38;;;2.28;;
76591;SDS011;65481;47.600;19.682;2023-07-20T09:15:15;5.63;;;2.80;;
76591;SDS011;65481;47.600;19.682;2023-07-20T09:20:17;7.30;;;2.90;;
76591;SDS011;65481;47.600;19.682;2023-07-20T09:25:19;4.82;;;2.42;;
76591;SDS011;65481;47.600;19.682;2023-07-20T09:30:20;4.60;;;2.72;;
76591;SDS011;65481;47.600;19.682;2023-07-20T09:35:25;3.78;;;2.33;;
76591;SDS011;65481;47.600;19.682;2023-07-20T09:40:26;5.55;;;2.72;;
76591;SDS011;65481;47.600;19.682;2023-07-20T09:45:30;6.90;;;2.88;;
76591;SDS011;65481;47.600;19.682;2023-07-20T09:50:33;4.05;;;2.42;;
76591;SDS011;65481;47.600;19.682;2023-07-20T09:55:39;3.17;;;2.35;;
76591;SDS011;65481;47.600;19.682;2023-07-20T10:00:41;3.97;;;2.50;;
76591;SDS011;65481;47.600;19.682;2023-07-20T10:06:06;6.93;;;2.22;;
76591;SDS011;65481;47.600;19.682;2023-07-20T10:11:08;6.05;;;2.55;;
76591;SDS011;65481;47.600;19.682;2023-07-20T10:16:14;7.20;;;2.45;;
76591;SDS011;65481;47.600;19.682;2023-07-20T10:21:22;6.90;;;2.25;;
76591;SDS011;65481;47.600;19.682;2023-07-20T10:31:26;5.82;;;2.50;;
76591;SDS011;65481;47.600;19.682;2023-07-20T10:36:28;5.50;;;2.00;;
76591;SDS011;65481;47.600;19.682;2023-07-20T10:41:32;3.70;;;2.53;;
76591;SDS011;65481;47.600;19.682;2023-07-20T10:56:48;4.30;;;2.35;;
76591;SDS011;65481;47.600;19.682;2023-07-20T11:01:49;3.72;;;2.10;;
76591;SDS011;65481;47.600;19.682;2023-07-20T11:06:57;3.53;;;2.08;;
76591;SDS011;65481;47.600;19.682;2023-07-20T11:12:08;5.03;;;2.30;;
76591;SDS011;65481;47.600;19.682;2023-07-20T11:17:14;3.92;;;2.47;;
76591;SDS011;65481;47.600;19.682;2023-07-20T11:22:16;6.05;;;2.13;;
76591;SDS011;65481;47.600;19.682;2023-07-20T11:27:17;6.63;;;2.15;;
76591;SDS011;65481;47.600;19.682;2023-07-20T11:32:23;5.38;;;1.85;;
76591;SDS011;65481;47.600;19.682;2023-07-20T11:37:24;3.47;;;2.25;;
76591;SDS011;65481;47.600;19.682;2023-07-20T11:42:24;4.15;;;2.05;;
76591;SDS011;65481;47.600;19.682;2023-07-20T11:47:28;5.13;;;2.15;;
76591;SDS011;65481;47.600;19.682;2023-07-20T11:52:29;5.03;;;2.35;;
76591;SDS011;65481;47.600;19.682;2023-07-20T11:57:30;10.82;;;2.70;;
76591;SDS011;65481;47.600;19.682;2023-07-20T12:02:31;4.82;;;2.50;;
76591;SDS011;65481;47.600;19.682;2023-07-20T12:07:35;4.53;;;2.17;;
76591;SDS011;65481;47.600;19.682;2023-07-20T12:12:40;4.05;;;2.20;;
76591;SDS011;65481;47.600;19.682;2023-07-20T12:17:43;5.13;;;2.33;;
76591;SDS011;65481;47.600;19.682;2023-07-20T12:22:44;3.17;;;2.35;;
76591;SDS011;65481;47.600;19.682;2023-07-20T12:27:44;3.40;;;2.10;;
76591;SDS011;65481;47.600;19.682;2023-07-20T12:32:45;4.68;;;1.90;;
76591;SDS011;65481;47.600;19.682;2023-07-20T12:37:45;3.53;;;2.03;;
76591;SDS011;65481;47.600;19.682;2023-07-20T12:42:49;4.90;;;1.90;;
76591;SDS011;65481;47.600;19.682;2023-07-20T12:47:49;3.33;;;1.88;;
76591;SDS011;65481;47.600;19.682;2023-07-20T12:52:50;4.97;;;2.38;;
76591;SDS011;65481;47.600;19.682;2023-07-20T12:57:50;5.55;;;2.33;;
76591;SDS011;65481;47.600;19.682;2023-07-20T13:02:51;5.60;;;2.13;;
76591;SDS011;65481;47.600;19.682;2023-07-20T13:07:52;2.88;;;2.10;;
76591;SDS011;65481;47.600;19.682;2023-07-20T13:12:52;2.90;;;2.30;;
76591;SDS011;65481;47.600;19.682;2023-07-20T13:17:53;3.70;;;2.10;;
76591;SDS011;65481;47.600;19.682;2023-07-20T13:22:53;4.38;;;1.98;;
76591;SDS011;65481;47.600;19.682;2023-07-20T13:27:54;2.83;;;2.05;;
76591;SDS011;65481;47.600;19.682;2023-07-20T13:32:54;6.13;;;2.20;;
76591;SDS011;65481;47.600;19.682;2023-07-20T13:37:55;6.63;;;1.80;;
76591;SDS011;65481;47.600;19.682;2023-07-20T13:42:55;3.35;;;2.00;;
76591;SDS011;65481;47.600;19.682;2023-07-20T13:47:56;3.92;;;1.98;;
76591;SDS011;65481;47.600;19.682;2023-07-20T13:52:56;4.43;;;2.00;;
76591;SDS011;65481;47.600;19.682;2023-07-20T13:57:57;3.28;;;1.90;;
76591;SDS011;65481;47.600;19.682;2023-07-20T14:02:57;3.00;;;1.90;;
76591;SDS011;65481;47.600;19.682;2023-07-20T14:08:01;2.92;;;2.08;;
76591;SDS011;65481;47.600;19.682;2023-07-20T14:13:01;4.30;;;2.33;;
76591;SDS011;65481;47.600;19.682;2023-07-20T14:18:02;4.43;;;1.80;;
76591;SDS011;65481;47.600;19.682;2023-07-20T14:23:02;3.70;;;2.47;;
76591;SDS011;65481;47.600;19.682;2023-07-20T14:28:03;3.83;;;1.90;;
76591;SDS011;65481;47.600;19.682;2023-07-20T14:33:03;5.28;;;2.33;;
76591;SDS011;65481;47.600;19.682;2023-07-20T14:38:04;5.13;;;1.93;;
76591;SDS011;65481;47.600;19.682;2023-07-20T14:43:04;4.38;;;2.40;;
76591;SDS011;65481;47.600;19.682;2023-07-20T14:48:05;3.00;;;1.95;;
76591;SDS011;65481;47.600;19.682;2023-07-20T14:53:06;4.85;;;1.95;;
76591;SDS011;65481;47.600;19.682;2023-07-20T14:58:07;3.72;;;2.10;;
76591;SDS011;65481;47.600;19.682;2023-07-20T15:03:08;5.32;;;2.10;;
76591;SDS011;65481;47.600;19.682;2023-07-20T15:08:09;5.18;;;2.17;;
76591;SDS011;65481;47.600;19.682;2023-07-20T15:13:10;4.93;;;2.30;;
76591;SDS011;65481;47.600;19.682;2023-07-20T15:18:10;5.55;;;1.88;;
76591;SDS011;65481;47.600;19.682;2023-07-20T15:23:11;3.90;;;2.22;;
76591;SDS011;65481;47.600;19.682;2023-07-20T15:28:11;2.90;;;2.00;;
76591;SDS011;65481;47.600;19.682;2023-07-20T15:33:12;2.22;;;1.80;;
76591;SDS011;65481;47.600;19.682;2023-07-20T15:38:14;5.50;;;2.33;;
76591;SDS011;65481;47.600;19.682;2023-07-20T15:43:15;2.92;;;1.92;;
76591;SDS011;65481;47.600;19.682;2023-07-20T15:48:15;5.68;;;1.95;;
76591;SDS011;65481;47.600;19.682;2023-07-20T15:53:16;3.92;;;2.40;;
76591;SDS011;65481;47.600;19.682;2023-07-20T15:58:17;4.30;;;2.08;;
76591;SDS011;65481;47.600;19.682;2023-07-20T16:03:17;3.95;;;2.30;;
76591;SDS011;65481;47.600;19.682;2023-07-20T16:08:18;5.88;;;2.30;;
76591;SDS011;65481;47.600;19.682;2023-07-20T16:13:18;3.65;;;2.30;;
76591;SDS011;65481;47.600;19.682;2023-07-20T16:18:19;2.72;;;1.75;;
76591;SDS011;65481;47.600;19.682;2023-07-20T16:23:19;2.58;;;1.83;;
76591;SDS011;65481;47.600;19.682;2023-07-20T16:28:20;3.05;;;1.95;;
76591;SDS011;65481;47.600;19.682;2023-07-20T16:33:20;4.40;;;2.05;;
76591;SDS011;65481;47.600;19.682;2023-07-20T16:38:21;3.72;;;1.90;;
76591;SDS011;65481;47.600;19.682;2023-07-20T16:43:21;7.30;;;2.03;;
76591;SDS011;65481;47.600;19.682;2023-07-20T16:48:22;3.47;;;1.50;;
76591;SDS011;65481;47.600;19.682;2023-07-20T16:53:23;2.73;;;1.67;;
76591;SDS011;65481;47.600;19.682;2023-07-20T16:58:25;2.80;;;1.77;;
76591;SDS011;65481;47.600;19.682;2023-07-20T17:03:26;3.95;;;2.15;;
76591;SDS011;65481;47.600;19.682;2023-07-20T17:08:28;3.45;;;1.98;;
76591;SDS011;65481;47.600;19.682;2023-07-20T17:13:29;3.55;;;1.80;;
76591;SDS011;65481;47.600;19.682;2023-07-20T17:18:33;3.63;;;1.67;;
76591;SDS011;65481;47.600;19.682;2023-07-20T17:23:33;2.92;;;1.75;;
76591;SDS011;65481;47.600;19.682;2023-07-20T17:28:33;1.75;;;1.50;;
76591;SDS011;65481;47.600;19.682;2023-07-20T17:33:34;6.80;;;2.33;;
76591;SDS011;65481;47.600;19.682;2023-07-20T17:38:34;2.47;;;1.67;;
76591;SDS011;65481;47.600;19.682;2023-07-20T17:43:35;3.10;;;1.90;;
76591;SDS011;65481;47.600;19.682;2023-07-20T17:48:36;3.50;;;2.00;;
76591;SDS011;65481;47.600;19.682;2023-07-20T17:53:36;6.05;;;2.00;;
76591;SDS011;65481;47.600;19.682;2023-07-20T17:58:37;5.65;;;1.85;;
76591;SDS011;65481;47.600;19.682;2023-07-20T18:03:38;3.85;;;2.03;;
76591;SDS011;65481;47.600;19.682;2023-07-20T18:08:40;8.40;;;2.28;;
76591;SDS011;65481;47.600;19.682;2023-07-20T18:13:42;7.13;;;2.03;;
76591;SDS011;65481;47.600;19.682;2023-07-20T18:18:43;5.43;;;2.10;;
76591;SDS011;65481;47.600;19.682;2023-07-20T18:23:44;3.60;;;1.83;;
76591;SDS011;65481;47.600;19.682;2023-07-20T18:28:44;6.57;;;2.30;;
76591;SDS011;65481;47.600;19.682;2023-07-20T18:33:46;7.13;;;2.72;;
76591;SDS011;65481;47.600;19.682;2023-07-20T18:38:47;9.40;;;2.97;;
76591;SDS011;65481;47.600;19.682;2023-07-20T18:43:48;6.18;;;2.20;;
76591;SDS011;65481;47.600;19.682;2023-07-20T18:48:49;5.45;;;2.85;;
76591;SDS011;65481;47.600;19.682;2023-07-20T18:53:49;5.15;;;2.03;;
76591;SDS011;65481;47.600;19.682;2023-07-20T18:58:50;18.27;;;3.38;;
76591;SDS011;65481;47.600;19.682;2023-07-20T19:03:51;9.05;;;2.30;;
76591;SDS011;65481;47.600;19.682;2023-07-20T19:08:52;4.40;;;2.40;;
76591;SDS011;65481;47.600;19.682;2023-07-20T19:13:54;5.03;;;2.40;;
76591;SDS011;65481;47.600;19.682;2023-07-20T19:18:55;5.97;;;2.35;;
76591;SDS011;65481;47.600;19.682;2023-07-20T19:23:56;5.47;;;1.95;;
76591;SDS011;65481;47.600;19.682;2023-07-20T19:28:58;5.88;;;1.92;;
76591;SDS011;65481;47.600;19.682;2023-07-20T19:33:58;8.40;;;2.30;;
76591;SDS011;65481;47.600;19.682;2023-07-20T19:38:59;8.05;;;2.40;;
76591;SDS011;65481;47.600;19.682;2023-07-20T19:44:02;5.47;;;2.15;;
76591;SDS011;65481;47.600;19.682;2023-07-20T19:49:04;4.40;;;2.38;;
76591;SDS011;65481;47.600;19.682;2023-07-20T19:54:05;5.22;;;2.30;;
76591;SDS011;65481;47.600;19.682;2023-07-20T19:59:06;3.38;;;2.05;;
76591;SDS011;65481;47.600;19.682;2023-07-20T20:04:09;5.18;;;2.33;;
76591;SDS011;65481;47.600;19.682;2023-07-20T20:09:10;12.18;;;3.80;;
76591;SDS011;65481;47.600;19.682;2023-07-20T20:14:13;6.22;;;2.45;;
76591;SDS011;65481;47.600;19.682;2023-07-20T20:19:14;6.00;;;2.40;;
76591;SDS011;65481;47.600;19.682;2023-07-20T20:24:15;7.75;;;2.50;;
76591;SDS011;65481;47.600;19.682;2023-07-20T20:29:18;8.90;;;2.72;;
76591;SDS011;65481;47.600;19.682;2023-07-20T20:34:19;14.18;;;3.35;;
76591;SDS011;65481;47.600;19.682;2023-07-20T20:39:26;5.50;;;3.10;;
76591;SDS011;65481;47.600;19.682;2023-07-20T20:44:28;5.10;;;2.92;;
76591;SDS011;65481;47.600;19.682;2023-07-20T20:49:31;8.55;;;2.65;;
76591;SDS011;65481;47.600;19.682;2023-07-20T20:54:33;6.43;;;3.10;;
76591;SDS011;65481;47.600;19.682;2023-07-20T20:59:34;6.10;;;2.95;;
76591;SDS011;65481;47.600;19.682;2023-07-20T21:04:38;7.50;;;2.63;;
76591;SDS011;65481;47.600;19.682;2023-07-20T21:09:39;4.72;;;2.70;;
76591;SDS011;65481;47.600;19.682;2023-07-20T21:14:40;7.40;;;2.67;;
76591;SDS011;65481;47.600;19.682;2023-07-20T21:19:41;3.85;;;2.67;;
76591;SDS011;65481;47.600;19.682;2023-07-20T21:24:42;7.38;;;2.53;;
76591;SDS011;65481;47.600;19.682;2023-07-20T21:29:43;7.35;;;3.20;;
76591;SDS011;65481;47.600;19.682;2023-07-20T21:34:43;4.45;;;2.03;;
76591;SDS011;65481;47.600;19.682;2023-07-20T21:39:44;5.25;;;2.72;;
76591;SDS011;65481;47.600;19.682;2023-07-20T21:44:45;4.43;;;2.72;;
76591;SDS011;65481;47.600;19.682;2023-07-20T21:49:45;4.80;;;2.75;;
76591;SDS011;65481;47.600;19.682;2023-07-20T21:54:46;3.53;;;2.70;;
76591;SDS011;65481;47.600;19.682;2023-07-20T21:59:47;7.45;;;3.13;;
76591;SDS011;65481;47.600;19.682;2023-07-20T22:04:47;7.22;;;2.25;;
76591;SDS011;65481;47.600;19.682;2023-07-20T22:09:48;10.30;;;2.97;;
76591;SDS011;65481;47.600;19.682;2023-07-20T22:14:48;6.15;;;3.33;;
76591;SDS011;65481;47.600;19.682;2023-07-20T22:19:48;4.13;;;2.63;;
76591;SDS011;65481;47.600;19.682;2023-07-20T22:24:49;7.15;;;3.03;;
76591;SDS011;65481;47.600;19.682;2023-07-20T22:29:49;4.90;;;2.58;;
76591;SDS011;65481;47.600;19.682;2023-07-20T22:34:50;5.72;;;2.53;;
76591;SDS011;65481;47.600;19.682;2023-07-20T22:39:51;4.82;;;2.80;;
76591;SDS011;65481;47.600;19.682;2023-07-20T22:44:54;3.60;;;2.63;;
76591;SDS011;65481;47.600;19.682;2023-07-20T22:49:56;4.57;;;2.67;;
76591;SDS011;65481;47.600;19.682;2023-07-20T22:54:57;4.57;;;2.70;;
76591;SDS011;65481;47.600;19.682;2023-07-20T22:59:58;3.30;;;2.45;;
76591;SDS011;65481;47.600;19.682;2023-07-20T23:05:01;4.05;;;2.60;;
76591;SDS011;65481;47.600;19.682;2023-07-20T23:10:01;4.63;;;2.70;;
76591;SDS011;65481;47.600;19.682;2023-07-20T23:15:02;4.35;;;2.63;;
76591;SDS011;65481;47.600;19.682;2023-07-20T23:20:04;3.80;;;2.80;;
76591;SDS011;65481;47.600;19.682;2023-07-20T23:25:07;4.07;;;3.00;;
76591;SDS011;65481;47.600;19.682;2023-07-20T23:30:09;5.30;;;2.67;;
76591;SDS011;65481;47.600;19.682;2023-07-20T23:35:10;3.13;;;2.83;;
76591;SDS011;65481;47.600;19.682;2023-07-20T23:40:11;5.57;;;3.03;;
76591;SDS011;65481;47.600;19.682;2023-07-20T23:45:14;5.07;;;3.05;;
76591;SDS011;65481;47.600;19.682;2023-07-20T23:50:14;5.80;;;3.15;;
76591;SDS011;65481;47.600;19.682;2023-07-20T23:55:16;4.30;;;2.90;;
